createdAt,value
2023-05-05T00:01:03.561Z,10.30
2023-05-05T00:02:35.881Z,9.18
2023-05-05T00:04:07.995Z,11.25
2023-05-05T00:05:40.100Z,10.15
2023-05-05T00:07:12.061Z,12.93
2023-05-05T00:08:44.182Z,9.88
2023-05-05T00:10:16.272Z,9.27
2023-05-05T00:11:48.316Z,9.40
2023-05-05T00:13:21.365Z,10.30
2023-05-05T00:14:53.491Z,12.25
2023-05-05T00:16:25.645Z,9.43
2023-05-05T00:17:57.782Z,9.60
2023-05-05T00:19:30.013Z,9.50
2023-05-05T00:21:02.228Z,13.13
2023-05-05T00:22:34.249Z,13.30
2023-05-05T00:24:06.588Z,11.68
2023-05-05T00:25:41.515Z,10.65
2023-05-05T00:27:13.565Z,12.00
2023-05-05T00:28:45.617Z,10.63
2023-05-05T00:30:17.749Z,11.05
2023-05-05T00:31:52.619Z,10.52
2023-05-05T00:33:24.894Z,10.13
2023-05-05T00:34:57.186Z,10.95
2023-05-05T00:36:29.365Z,12.23
2023-05-05T00:38:01.465Z,10.55
2023-05-05T00:39:33.688Z,11.55
2023-05-05T00:41:05.822Z,11.82
2023-05-05T00:42:40.910Z,12.43
2023-05-05T00:44:13.138Z,11.80
2023-05-05T00:45:48.205Z,11.40
2023-05-05T00:47:20.385Z,10.73
2023-05-05T00:48:52.851Z,11.07
2023-05-05T00:50:29.892Z,11.33
2023-05-05T00:52:02.642Z,9.27
2023-05-05T00:53:35.256Z,14.52
2023-05-05T00:55:07.645Z,8.73
2023-05-05T00:56:39.748Z,12.90
2023-05-05T00:58:11.744Z,9.18
2023-05-05T00:59:44.121Z,11.45
2023-05-05T01:01:16.941Z,10.85
2023-05-05T01:02:49.218Z,10.23
2023-05-05T01:04:21.636Z,9.63
2023-05-05T01:06:06.701Z,9.10
2023-05-05T01:07:42.152Z,10.40
2023-05-05T01:09:39.125Z,11.23
2023-05-05T01:11:18.772Z,13.93
2023-05-05T01:12:59.559Z,9.38
2023-05-05T01:14:50.742Z,10.57
2023-05-05T01:16:26.558Z,11.48
2023-05-05T01:18:05.634Z,9.75
2023-05-05T01:19:43.877Z,9.80
2023-05-05T01:21:20.780Z,9.25
2023-05-05T01:22:58.786Z,13.23
2023-05-05T01:24:50.906Z,9.35
2023-05-05T01:26:31.697Z,14.00
2023-05-05T01:28:22.248Z,11.48
2023-05-05T01:30:36.946Z,12.65
2023-05-05T01:32:11.620Z,9.75
2023-05-05T01:33:49.948Z,11.52
2023-05-05T01:35:35.924Z,10.25
2023-05-05T01:37:10.832Z,12.55
2023-05-05T01:38:44.648Z,10.55
2023-05-05T01:40:21.760Z,9.88
2023-05-05T01:41:59.277Z,10.55
2023-05-05T01:43:34.996Z,9.63
2023-05-05T01:45:11.577Z,11.98
2023-05-05T01:46:43.654Z,10.15
2023-05-05T01:48:17.862Z,11.45
2023-05-05T01:49:50.777Z,10.82
2023-05-05T01:51:23.961Z,13.82
2023-05-05T01:52:57.093Z,12.55
2023-05-05T01:54:29.298Z,10.73
2023-05-05T01:56:02.716Z,9.75
2023-05-05T01:59:07.529Z,9.90
2023-05-05T02:00:39.893Z,9.55
2023-05-05T02:02:16.635Z,10.43
2023-05-05T02:03:49.946Z,9.77
2023-05-05T02:05:23.249Z,10.50
2023-05-05T02:06:56.720Z,10.60
2023-05-05T02:10:02.853Z,13.10
2023-05-05T02:11:35.138Z,13.63
2023-05-05T02:13:08.026Z,10.68
2023-05-05T02:14:41.284Z,11.02
2023-05-05T02:16:13.726Z,10.27
2023-05-05T02:17:49.090Z,13.50
2023-05-05T02:19:23.610Z,10.15
2023-05-05T02:20:55.886Z,10.27
2023-05-05T02:22:28.319Z,9.95
2023-05-05T02:24:01.008Z,10.38
2023-05-05T02:25:39.096Z,10.38
2023-05-05T02:27:11.726Z,9.40
2023-05-05T02:29:07.743Z,11.77
2023-05-05T02:30:40.592Z,10.07
2023-05-05T02:32:18.981Z,12.07
2023-05-05T02:33:52.285Z,10.07
2023-05-05T02:35:27.988Z,11.27
2023-05-05T02:37:01.530Z,9.35
2023-05-05T02:38:34.151Z,11.23
2023-05-05T02:40:08.953Z,13.05
2023-05-05T02:41:42.024Z,11.27
2023-05-05T02:43:17.536Z,10.18
2023-05-05T02:44:50.699Z,13.05
2023-05-05T02:46:22.838Z,12.60
2023-05-05T02:47:54.990Z,14.10
2023-05-05T02:49:27.490Z,10.88
2023-05-05T02:50:59.662Z,10.57
2023-05-05T02:52:35.045Z,12.13
2023-05-05T02:54:07.407Z,10.68
2023-05-05T02:55:54.588Z,10.70
2023-05-05T02:57:33.445Z,12.05
2023-05-05T02:59:28.370Z,11.60
2023-05-05T03:01:21.197Z,13.25
2023-05-05T03:03:02.237Z,9.25
2023-05-05T03:04:47.795Z,10.95
2023-05-05T03:06:21.867Z,10.55
2023-05-05T03:08:03.873Z,13.30
2023-05-05T03:09:42.476Z,10.45
2023-05-05T03:11:43.398Z,10.07
2023-05-05T03:13:18.473Z,11.70
2023-05-05T03:14:52.682Z,12.07
2023-05-05T03:16:25.269Z,10.27
2023-05-05T03:17:58.852Z,9.50
2023-05-05T03:19:31.932Z,10.40
2023-05-05T03:21:09.144Z,13.07
2023-05-05T03:22:41.284Z,12.40
2023-05-05T03:24:17.999Z,9.75
2023-05-05T03:25:50.570Z,12.18
2023-05-05T03:27:22.820Z,12.73
2023-05-05T03:28:54.932Z,10.27
2023-05-05T03:30:27.191Z,10.65
2023-05-05T03:31:59.742Z,9.98
2023-05-05T03:33:31.885Z,11.45
2023-05-05T03:35:04.173Z,12.25
2023-05-05T03:36:36.692Z,12.38
2023-05-05T03:38:08.826Z,11.87
2023-05-05T03:39:40.924Z,10.85
2023-05-05T03:41:16.089Z,12.23
2023-05-05T03:42:48.264Z,10.20
2023-05-05T03:44:20.350Z,10.43
2023-05-05T03:45:52.485Z,10.88
2023-05-05T03:47:25.055Z,11.75
2023-05-05T03:49:00.188Z,10.65
2023-05-05T03:50:32.294Z,11.00
2023-05-05T03:52:04.695Z,11.13
2023-05-05T03:53:36.808Z,10.65
2023-05-05T03:55:09.300Z,13.40
2023-05-05T03:56:41.414Z,10.47
2023-05-05T03:58:14.828Z,9.52
2023-05-05T04:01:19.118Z,11.13
2023-05-05T04:02:51.645Z,10.88
2023-05-05T04:04:23.903Z,11.63
2023-05-05T04:05:56.331Z,9.90
2023-05-05T04:07:28.450Z,17.65
2023-05-05T04:09:00.551Z,12.65
2023-05-05T04:10:32.774Z,11.32
2023-05-05T04:12:05.361Z,13.65
2023-05-05T04:13:37.464Z,14.00
2023-05-05T04:15:10.189Z,10.75
2023-05-05T04:16:42.464Z,10.45
2023-05-05T04:18:14.667Z,12.50
2023-05-05T04:19:46.731Z,11.95
2023-05-05T04:21:18.887Z,10.63
2023-05-05T04:22:52.716Z,11.60
2023-05-05T04:24:25.500Z,9.85
2023-05-05T04:25:57.946Z,11.88
2023-05-05T04:27:30.935Z,11.20
2023-05-05T04:29:03.110Z,11.10
2023-05-05T04:30:35.177Z,11.65
2023-05-05T04:32:07.247Z,11.93
2023-05-05T04:33:39.335Z,12.05
2023-05-05T04:35:11.495Z,12.25
2023-05-05T04:36:43.680Z,12.73
2023-05-05T04:38:15.941Z,13.98
2023-05-05T04:39:48.082Z,12.60
2023-05-05T04:42:53.260Z,12.27
2023-05-05T04:44:25.358Z,12.52
2023-05-05T04:45:57.469Z,12.15
2023-05-05T04:47:29.725Z,12.20
2023-05-05T04:49:02.360Z,13.95
2023-05-05T04:50:34.426Z,11.73
2023-05-05T04:52:07.608Z,11.95
2023-05-05T04:53:39.969Z,13.18
2023-05-05T04:55:12.166Z,12.93
2023-05-05T04:56:44.297Z,13.38
2023-05-05T04:58:16.468Z,13.55
2023-05-05T04:59:48.619Z,13.40
2023-05-05T05:01:20.815Z,12.95
2023-05-05T05:02:53.615Z,13.30
2023-05-05T05:04:27.527Z,13.27
2023-05-05T05:05:59.634Z,15.23
2023-05-05T05:07:31.774Z,12.43
2023-05-05T05:09:04.209Z,12.68
2023-05-05T05:10:36.934Z,17.17
2023-05-05T05:12:10.181Z,10.77
2023-05-05T05:13:42.260Z,12.20
2023-05-05T05:15:14.418Z,11.40
2023-05-05T05:16:46.612Z,13.52
2023-05-05T05:18:18.774Z,11.55
2023-05-05T05:19:50.854Z,12.48
2023-05-05T05:21:22.993Z,12.48
2023-05-05T05:22:55.154Z,13.68
2023-05-05T05:24:27.318Z,12.15
2023-05-05T05:25:59.527Z,14.02
2023-05-05T05:27:31.816Z,12.63
2023-05-05T05:29:04.624Z,13.80
2023-05-05T05:30:36.959Z,12.25
2023-05-05T05:32:09.270Z,12.90
2023-05-05T05:33:42.160Z,12.73
2023-05-05T05:35:14.258Z,16.90
2023-05-05T05:36:46.301Z,13.13
2023-05-05T05:38:18.478Z,13.43
2023-05-05T05:39:53.613Z,14.48
2023-05-05T05:41:25.824Z,13.38
2023-05-05T05:42:57.916Z,11.40
2023-05-05T05:44:30.078Z,12.75
2023-05-05T05:46:02.269Z,13.95
2023-05-05T05:47:34.355Z,11.75
2023-05-05T05:49:06.662Z,12.35
2023-05-05T05:50:38.795Z,14.48
2023-05-05T05:52:11.076Z,12.65
2023-05-05T05:53:43.140Z,13.95
2023-05-05T05:55:15.234Z,15.63
2023-05-05T05:56:47.332Z,14.90
2023-05-05T05:58:19.804Z,13.77
2023-05-05T05:59:54.305Z,13.17
2023-05-05T06:01:26.451Z,13.75
2023-05-05T06:02:58.672Z,11.57
2023-05-05T06:04:31.934Z,14.20
2023-05-05T06:06:04.217Z,13.50
2023-05-05T06:07:36.355Z,18.10
2023-05-05T06:09:08.636Z,14.75
2023-05-05T06:10:43.130Z,14.70
2023-05-05T06:12:15.228Z,12.13
2023-05-05T06:13:47.329Z,12.18
2023-05-05T06:15:19.412Z,13.48
2023-05-05T06:16:52.690Z,13.45
2023-05-05T06:18:24.961Z,13.63
2023-05-05T06:19:57.149Z,16.33
2023-05-05T06:21:29.336Z,14.73
2023-05-05T06:23:01.533Z,13.68
2023-05-05T06:24:33.715Z,20.13
2023-05-05T06:26:05.887Z,12.82
2023-05-05T06:27:38.209Z,14.10
2023-05-05T06:29:12.208Z,12.90
2023-05-05T06:30:44.711Z,14.65
2023-05-05T06:32:16.824Z,16.63
2023-05-05T06:33:48.846Z,16.25
2023-05-05T06:35:21.545Z,13.70
2023-05-05T06:36:53.699Z,15.60
2023-05-05T06:38:25.842Z,13.18
2023-05-05T06:39:58.061Z,12.77
2023-05-05T06:41:30.428Z,14.23
2023-05-05T06:43:05.139Z,15.35
2023-05-05T06:44:37.445Z,14.43
2023-05-05T06:46:09.507Z,13.38
2023-05-05T06:47:42.747Z,17.10
2023-05-05T06:49:14.865Z,14.25
2023-05-05T06:50:46.953Z,12.13
2023-05-05T06:52:19.035Z,14.25
2023-05-05T06:53:51.476Z,15.75
2023-05-05T06:55:24.095Z,13.20
2023-05-05T06:56:59.799Z,21.45
2023-05-05T06:58:32.133Z,15.65
2023-05-05T07:00:06.313Z,13.15
2023-05-05T07:01:38.429Z,11.70
2023-05-05T07:03:10.897Z,13.68
2023-05-05T07:04:44.147Z,12.50
2023-05-05T07:06:16.355Z,13.70
2023-05-05T07:07:55.525Z,16.92
2023-05-05T07:09:29.811Z,12.85
2023-05-05T07:11:01.957Z,11.43
2023-05-05T07:12:34.092Z,12.05
2023-05-05T07:14:06.679Z,11.95
2023-05-05T07:15:47.848Z,14.20
2023-05-05T07:17:19.963Z,13.95
2023-05-05T07:18:52.052Z,11.73
2023-05-05T07:20:24.588Z,11.85
2023-05-05T07:21:56.850Z,10.43
2023-05-05T07:23:28.978Z,10.50
2023-05-05T07:25:01.153Z,12.27
2023-05-05T07:26:33.354Z,10.27
2023-05-05T07:28:05.852Z,9.07
2023-05-05T13:36:30.443Z,10.18
2023-05-05T13:38:02.517Z,10.20
2023-05-05T13:39:34.704Z,8.75
2023-05-05T13:41:06.837Z,9.27
2023-05-05T13:42:39.101Z,9.20
2023-05-05T13:44:11.333Z,8.73
2023-05-05T13:45:43.418Z,9.27
2023-05-05T13:47:15.584Z,7.15
2023-05-05T13:48:47.785Z,6.70
2023-05-05T13:50:19.950Z,9.73
2023-05-05T13:51:52.146Z,9.85
2023-05-05T13:53:24.396Z,10.02
2023-05-05T13:54:56.524Z,14.65
2023-05-05T13:56:28.710Z,9.43
2023-05-05T13:58:00.965Z,9.85
2023-05-05T13:59:33.137Z,11.50
2023-05-05T14:01:05.458Z,9.90
2023-05-05T14:02:37.716Z,11.48
2023-05-05T14:04:09.881Z,9.00
2023-05-05T14:05:43.318Z,10.15
2023-05-05T14:07:15.418Z,12.10
2023-05-05T14:08:47.611Z,14.07
2023-05-05T14:10:19.723Z,11.80
2023-05-05T14:11:51.990Z,10.85
2023-05-05T14:13:24.178Z,10.65
2023-05-05T14:14:56.260Z,12.77
2023-05-05T14:16:28.445Z,9.18
2023-05-05T14:18:00.767Z,9.50
2023-05-05T14:19:32.996Z,9.32
2023-05-05T14:21:05.186Z,8.27
2023-05-05T14:22:37.709Z,8.40
2023-05-05T14:24:10.057Z,8.40
2023-05-05T14:25:43.128Z,11.20
2023-05-05T14:27:15.348Z,13.63
2023-05-05T14:28:49.723Z,10.88
2023-05-05T14:30:22.381Z,11.23
2023-05-05T14:31:54.617Z,14.18
2023-05-05T14:33:27.001Z,10.98
2023-05-05T14:34:59.068Z,7.80
2023-05-05T14:36:31.816Z,9.32
2023-05-05T14:38:04.008Z,9.82
2023-05-05T14:39:36.256Z,9.73
2023-05-05T14:41:08.476Z,9.13
2023-05-05T14:42:40.844Z,11.00
2023-05-05T14:44:13.200Z,10.82
2023-05-05T14:45:45.415Z,11.27
2023-05-05T14:47:17.640Z,7.80
2023-05-05T14:48:49.867Z,8.23
2023-05-05T14:50:22.263Z,9.40
2023-05-05T14:51:55.495Z,7.17
2023-05-05T14:53:29.056Z,8.57
2023-05-05T14:55:01.446Z,8.10
2023-05-05T14:56:33.667Z,8.83
2023-05-05T14:58:05.935Z,9.23
2023-05-05T14:59:38.089Z,9.93
2023-05-05T15:01:10.262Z,7.93
2023-05-05T15:02:42.517Z,7.40
2023-05-05T15:04:14.950Z,8.57
2023-05-05T15:05:47.134Z,7.80
2023-05-05T15:07:20.803Z,9.23
2023-05-05T15:08:53.100Z,8.05
2023-05-05T15:10:25.549Z,7.13
2023-05-05T15:11:57.844Z,10.40
2023-05-05T15:13:30.587Z,7.55
2023-05-05T15:15:02.865Z,13.18
2023-05-05T15:16:35.565Z,8.18
2023-05-05T15:18:08.004Z,7.97
2023-05-05T15:19:40.200Z,9.27
2023-05-05T15:21:12.503Z,7.47
2023-05-05T15:22:44.965Z,8.63
2023-05-05T15:24:17.205Z,6.72
2023-05-05T15:25:49.333Z,7.95
2023-05-05T15:27:21.651Z,7.40
2023-05-05T15:28:53.753Z,7.07
2023-05-05T15:30:26.040Z,7.85
2023-05-05T15:31:58.455Z,8.13
2023-05-05T15:33:34.098Z,7.60
2023-05-05T15:35:07.338Z,8.27
2023-05-05T15:38:11.846Z,7.97
2023-05-05T15:39:44.113Z,7.97
2023-05-05T15:41:16.552Z,7.15
2023-05-05T15:42:50.258Z,7.53
2023-05-05T15:44:22.500Z,7.78
2023-05-05T15:45:55.095Z,7.22
2023-05-05T15:47:27.456Z,7.65
2023-05-05T15:48:59.759Z,7.90
2023-05-05T15:50:32.104Z,7.22
2023-05-05T15:52:04.321Z,9.00
2023-05-05T15:53:36.515Z,6.95
2023-05-05T15:55:09.707Z,11.32
2023-05-05T15:58:14.057Z,7.07
2023-05-05T15:59:46.417Z,9.38
2023-05-05T16:01:18.764Z,6.93
2023-05-05T16:02:51.336Z,6.82
2023-05-05T16:04:23.725Z,7.47
2023-05-05T16:05:56.057Z,8.10
2023-05-05T16:07:28.314Z,7.32
2023-05-05T16:09:00.688Z,8.25
2023-05-05T16:10:32.874Z,6.80
2023-05-05T16:12:05.961Z,9.23
2023-05-05T16:13:39.582Z,7.97
2023-05-05T16:15:12.234Z,9.25
2023-05-05T16:16:44.533Z,6.88
2023-05-05T16:18:16.751Z,6.57
2023-05-05T16:19:51.858Z,6.55
2023-05-05T16:21:24.200Z,8.13
2023-05-05T16:22:56.434Z,7.38
2023-05-05T16:24:28.704Z,8.82
2023-05-05T16:26:00.892Z,7.90
2023-05-05T16:27:33.091Z,9.35
2023-05-05T16:29:05.308Z,9.18
2023-05-05T16:30:38.576Z,8.38
2023-05-05T16:32:10.849Z,8.55
2023-05-05T16:33:44.161Z,6.88
2023-05-05T16:36:48.425Z,8.65
2023-05-05T16:38:20.758Z,9.57
2023-05-05T16:39:53.030Z,9.55
2023-05-05T16:41:26.431Z,7.15
2023-05-05T16:43:01.560Z,7.60
2023-05-05T16:44:33.798Z,6.93
2023-05-05T16:46:07.105Z,7.70
2023-05-05T16:49:11.539Z,8.40
2023-05-05T16:50:43.838Z,7.93
2023-05-05T16:52:16.211Z,7.53
2023-05-05T16:53:49.131Z,11.52
2023-05-05T16:55:21.559Z,7.97
2023-05-05T16:56:54.292Z,11.57
2023-05-05T16:58:26.698Z,9.05
2023-05-05T16:59:58.869Z,6.88
2023-05-05T17:01:31.107Z,8.50
2023-05-05T17:03:03.598Z,8.35
2023-05-05T17:04:35.830Z,9.05
2023-05-05T17:06:08.086Z,8.57
2023-05-05T17:07:40.772Z,9.15
2023-05-05T17:09:13.031Z,7.32
2023-05-05T17:10:45.899Z,9.30
2023-05-05T17:12:18.172Z,8.40
2023-05-05T17:13:50.472Z,10.68
2023-05-05T17:15:22.777Z,9.50
2023-05-05T17:16:55.043Z,8.73
2023-05-05T17:18:27.364Z,11.75
2023-05-05T17:19:59.777Z,12.00
2023-05-05T17:21:32.044Z,10.43
2023-05-05T17:23:04.312Z,8.50
2023-05-05T17:24:36.900Z,8.48
2023-05-05T17:26:09.138Z,9.48
2023-05-05T17:27:42.189Z,9.80
2023-05-05T17:29:15.590Z,11.15
2023-05-05T17:32:19.850Z,9.38
2023-05-05T17:33:52.052Z,8.90
2023-05-05T17:35:24.344Z,7.50
2023-05-05T17:36:56.920Z,8.98
2023-05-05T17:38:29.241Z,9.57
2023-05-05T17:40:01.432Z,9.40
2023-05-05T17:41:33.851Z,10.02
2023-05-05T17:43:06.097Z,9.13
2023-05-05T17:44:38.378Z,8.95
2023-05-05T17:46:10.588Z,9.73
2023-05-05T17:47:43.040Z,9.15
2023-05-05T17:50:48.088Z,9.90
2023-05-05T17:52:21.138Z,8.68
2023-05-05T17:53:53.685Z,9.35
2023-05-05T17:55:26.285Z,10.18
2023-05-05T17:57:00.049Z,9.50
2023-05-05T17:58:32.221Z,8.38
2023-05-05T18:00:06.159Z,11.13
2023-05-05T18:01:41.293Z,9.68
2023-05-05T18:03:13.880Z,9.90
2023-05-05T18:04:46.985Z,8.48
2023-05-05T18:06:19.317Z,8.77
2023-05-05T18:07:51.479Z,12.77
2023-05-05T18:09:23.927Z,10.40
2023-05-05T18:10:56.176Z,8.90
2023-05-05T18:12:28.550Z,9.55
2023-05-05T18:14:00.926Z,9.73
2023-05-05T18:15:33.191Z,11.00
2023-05-05T18:17:05.559Z,9.85
2023-05-05T18:18:37.723Z,9.00
2023-05-05T18:20:10.648Z,8.45
2023-05-05T18:21:43.178Z,10.80
2023-05-05T18:23:15.363Z,8.63
2023-05-05T18:24:47.552Z,9.70
2023-05-05T18:26:19.874Z,8.15
2023-05-05T18:27:52.178Z,8.45
2023-05-05T18:29:24.480Z,8.63
2023-05-05T18:30:56.568Z,9.27
2023-05-05T18:32:28.742Z,9.73
2023-05-05T18:34:00.963Z,11.57
2023-05-05T18:35:33.378Z,9.82
2023-05-05T18:37:05.634Z,11.45
2023-05-05T18:38:37.815Z,11.45
2023-05-05T18:40:10.675Z,19.15
2023-05-05T18:41:42.806Z,13.00
2023-05-05T18:43:14.943Z,10.20
2023-05-05T18:44:47.363Z,10.05
2023-05-05T18:46:19.787Z,9.83
2023-05-05T18:47:51.869Z,9.82
2023-05-05T18:49:25.166Z,9.60
2023-05-05T18:51:04.188Z,10.85
2023-05-05T18:52:36.344Z,9.52
2023-05-05T18:54:08.622Z,9.05
2023-05-05T18:55:43.112Z,9.63
2023-05-05T18:57:15.256Z,9.70
2023-05-05T18:58:47.417Z,13.52
2023-05-05T19:00:21.230Z,11.38
2023-05-05T19:01:53.318Z,9.55
2023-05-05T19:03:25.528Z,12.32
2023-05-05T19:04:57.830Z,9.48
2023-05-05T19:06:30.271Z,10.57
2023-05-05T19:08:02.390Z,9.95
2023-05-05T19:09:34.560Z,12.00
2023-05-05T19:11:06.913Z,9.02
2023-05-05T19:12:39.194Z,12.82
2023-05-05T19:14:11.377Z,11.23
2023-05-05T19:15:43.463Z,10.63
2023-05-05T19:17:15.525Z,11.13
2023-05-05T19:18:47.744Z,11.27
2023-05-05T19:20:20.297Z,11.98
2023-05-05T19:21:52.410Z,12.27
2023-05-05T19:23:24.678Z,11.60
2023-05-05T19:24:56.948Z,13.95
2023-05-05T19:26:29.121Z,11.20
2023-05-05T19:28:01.450Z,13.68
2023-05-05T19:29:33.817Z,14.30
2023-05-05T19:31:06.100Z,39.28
2023-05-05T19:32:38.339Z,15.18
2023-05-05T19:34:10.530Z,16.98
2023-05-05T19:35:42.956Z,19.95
2023-05-05T19:37:15.104Z,19.07
2023-05-05T19:38:47.364Z,15.68
2023-05-05T19:40:19.534Z,17.35
2023-05-05T19:41:52.020Z,15.90
2023-05-05T19:43:24.171Z,16.60
2023-05-05T19:44:56.232Z,14.77
2023-05-05T19:46:28.478Z,14.25
2023-05-05T19:48:01.886Z,13.20
2023-05-05T19:51:06.008Z,12.77
2023-05-05T19:52:38.755Z,13.40
2023-05-05T19:54:10.941Z,139.23
2023-05-05T19:55:43.138Z,129.43
2023-05-05T19:57:15.495Z,45.42
2023-05-05T19:58:57.823Z,48.85
2023-05-05T20:00:30.061Z,36.70
2023-05-05T20:02:02.127Z,37.45
2023-05-05T20:03:34.374Z,59.85
2023-05-05T20:05:07.131Z,44.55
2023-05-05T20:06:39.335Z,43.13
2023-05-05T20:08:11.443Z,35.40
2023-05-05T20:09:43.554Z,27.70
2023-05-05T20:11:17.270Z,24.88
2023-05-05T20:12:49.511Z,16.00
2023-05-05T20:14:21.756Z,17.02
2023-05-05T20:15:53.893Z,16.33
2023-05-05T20:17:26.689Z,14.05
2023-05-05T20:18:58.791Z,18.10
2023-05-05T20:20:30.980Z,19.73
2023-05-05T20:22:03.073Z,19.13
2023-05-05T20:23:35.419Z,19.80
2023-05-05T20:25:07.811Z,21.02
2023-05-05T20:26:39.906Z,20.00
2023-05-05T20:28:12.265Z,19.73
2023-05-05T20:29:44.354Z,19.48
2023-05-05T20:31:16.584Z,24.15
2023-05-05T20:32:48.718Z,40.50
2023-05-05T20:34:20.824Z,28.42
2023-05-05T20:35:52.929Z,16.30
2023-05-05T20:37:27.460Z,23.02
2023-05-05T20:38:59.506Z,32.55
2023-05-05T20:40:33.628Z,21.88
2023-05-05T20:42:05.826Z,22.67
2023-05-05T20:43:38.243Z,23.35
2023-05-05T20:45:11.676Z,24.30
2023-05-05T20:48:15.950Z,22.58
2023-05-05T20:49:48.004Z,23.58
2023-05-05T20:51:20.654Z,30.77
2023-05-05T20:52:52.781Z,19.02
2023-05-05T20:54:24.945Z,27.02
2023-05-05T20:55:57.040Z,31.45
2023-05-05T20:57:29.089Z,38.72
2023-05-05T20:59:04.976Z,32.60
2023-05-05T21:00:37.490Z,21.55
2023-05-05T21:02:09.913Z,24.75
2023-05-05T21:03:41.997Z,25.08
2023-05-05T21:05:14.572Z,21.50
2023-05-05T21:06:47.625Z,20.33
2023-05-05T21:08:19.741Z,19.00
2023-05-05T21:09:51.875Z,18.48
2023-05-05T21:11:23.955Z,21.38
2023-05-05T21:12:56.240Z,20.02
2023-05-05T21:14:29.680Z,26.20
2023-05-05T21:17:33.853Z,24.58
2023-05-05T21:19:06.259Z,22.65
2023-05-05T21:20:38.400Z,18.40
2023-05-05T21:22:10.453Z,20.92
2023-05-05T21:23:42.495Z,19.45
2023-05-05T21:25:16.305Z,16.70
2023-05-05T21:26:48.399Z,23.45
2023-05-05T21:28:20.491Z,16.50
2023-05-05T21:29:52.592Z,16.10
2023-05-05T21:31:24.740Z,14.77
2023-05-05T21:32:57.511Z,14.57
2023-05-05T21:34:29.612Z,16.38
2023-05-05T21:36:01.763Z,441.67
2023-05-05T21:37:34.223Z,219.20
2023-05-05T21:39:06.616Z,162.35
2023-05-05T21:40:38.702Z,120.57
2023-05-05T21:42:10.961Z,56.08
2023-05-05T21:43:43.058Z,56.80
2023-05-05T21:45:15.208Z,64.43
2023-05-05T21:46:47.379Z,63.55
2023-05-05T21:48:19.549Z,83.03
2023-05-05T21:49:51.653Z,135.23
2023-05-05T21:52:56.487Z,102.25
2023-05-05T21:54:28.495Z,86.68
2023-05-05T21:56:00.687Z,83.07
2023-05-05T21:57:32.739Z,79.65
2023-05-05T21:59:05.933Z,64.55
2023-05-05T22:00:38.009Z,60.67
2023-05-05T22:02:10.197Z,74.30
2023-05-05T22:03:43.979Z,62.97
2023-05-05T22:05:16.176Z,30.08
2023-05-05T22:06:48.218Z,50.42
2023-05-05T22:08:20.366Z,30.05
2023-05-05T22:09:55.191Z,26.45
2023-05-05T22:11:27.361Z,29.02
2023-05-05T22:12:59.437Z,33.05
2023-05-05T22:14:31.617Z,29.40
2023-05-05T22:16:03.650Z,27.02
2023-05-05T22:17:36.528Z,17.08
2023-05-05T22:19:08.624Z,26.23
2023-05-05T22:20:40.902Z,19.15
2023-05-05T22:22:13.013Z,16.30
2023-05-05T22:23:46.434Z,16.00
2023-05-05T22:26:50.924Z,14.02
2023-05-05T22:28:23.547Z,16.02
2023-05-05T22:29:55.779Z,16.40
2023-05-05T22:31:27.898Z,15.80
2023-05-05T22:33:00.162Z,20.23
2023-05-05T22:34:32.257Z,21.52
2023-05-05T22:36:04.627Z,27.15
2023-05-05T22:37:36.831Z,24.48
2023-05-05T22:39:08.949Z,23.73
2023-05-05T22:40:41.209Z,17.70
2023-05-05T22:42:13.314Z,17.98
2023-05-05T22:43:45.487Z,17.30
2023-05-05T22:45:17.579Z,18.23
2023-05-05T22:46:49.753Z,18.88
2023-05-05T22:48:22.075Z,14.77
2023-05-05T22:49:54.273Z,14.65
2023-05-05T22:51:26.414Z,16.88
2023-05-05T22:52:58.476Z,16.15
2023-05-05T22:54:30.549Z,13.85
2023-05-05T22:56:02.628Z,15.10
2023-05-05T22:57:37.576Z,15.20
2023-05-05T22:59:09.697Z,16.40
2023-05-05T23:00:42.243Z,13.87
2023-05-05T23:02:15.076Z,13.38
2023-05-05T23:03:47.161Z,14.50
2023-05-05T23:05:19.339Z,13.98
2023-05-05T23:06:52.316Z,13.68
2023-05-05T23:08:24.526Z,19.55
2023-05-05T23:09:56.631Z,14.40
2023-05-05T23:11:31.626Z,14.40
2023-05-05T23:13:03.762Z,13.57
2023-05-05T23:14:36.457Z,16.60
2023-05-05T23:16:11.821Z,11.65
2023-05-05T23:17:44.021Z,16.10
2023-05-05T23:19:16.064Z,14.25
2023-05-05T23:20:48.049Z,12.48
2023-05-05T23:22:20.101Z,11.73
2023-05-05T23:23:52.262Z,15.00
2023-05-05T23:25:24.377Z,13.52
2023-05-05T23:26:59.798Z,13.27
2023-05-05T23:28:31.902Z,14.10
2023-05-05T23:30:04.197Z,15.48
2023-05-05T23:31:36.304Z,12.60
2023-05-05T23:33:08.441Z,12.98
2023-05-05T23:34:40.522Z,19.38
2023-05-05T23:36:12.572Z,19.88
2023-05-05T23:37:44.697Z,11.98
2023-05-05T23:39:16.952Z,11.77
2023-05-05T23:40:49.184Z,13.77
2023-05-05T23:42:21.259Z,14.23
2023-05-05T23:43:53.388Z,12.15
2023-05-05T23:45:25.510Z,12.30
2023-05-05T23:46:57.552Z,12.95
2023-05-05T23:48:29.613Z,11.90
2023-05-05T23:50:01.699Z,11.45
2023-05-05T23:51:33.828Z,16.52
2023-05-05T23:53:06.007Z,12.43
2023-05-05T23:54:38.039Z,12.90
2023-05-05T23:56:10.201Z,14.73
2023-05-05T23:57:42.217Z,16.23
2023-05-05T23:59:14.326Z,12.27
